createdAt,value
2023-08-17T00:01:55.054Z,47.16
2023-08-17T00:04:24.154Z,47.31
2023-08-17T00:06:52.652Z,47.30
2023-08-17T00:09:21.477Z,47.24
2023-08-17T00:11:50.046Z,46.87
2023-08-17T00:14:18.477Z,46.85
2023-08-17T00:16:48.329Z,46.78
2023-08-17T00:19:16.841Z,46.90
2023-08-17T00:21:47.251Z,46.96
2023-08-17T00:24:15.761Z,46.79
2023-08-17T00:26:44.160Z,46.74
2023-08-17T00:29:12.766Z,47.31
2023-08-17T00:31:41.358Z,47.28
2023-08-17T00:34:14.078Z,47.47
2023-08-17T00:36:42.636Z,47.60
2023-08-17T00:39:11.180Z,47.88
2023-08-17T00:41:39.795Z,48.22
2023-08-17T00:44:08.419Z,47.93
2023-08-17T00:46:36.941Z,48.03
2023-08-17T00:49:05.873Z,47.82
2023-08-17T00:51:35.841Z,48.07
2023-08-17T00:54:04.924Z,48.02
2023-08-17T00:56:33.531Z,48.15
2023-08-17T00:59:02.000Z,48.09
2023-08-17T01:01:30.522Z,47.87
2023-08-17T01:03:58.944Z,47.76
2023-08-17T01:06:27.550Z,47.83
2023-08-17T01:08:57.344Z,48.05
2023-08-17T01:11:31.167Z,47.96
2023-08-17T01:14:03.940Z,47.44
2023-08-17T01:16:35.226Z,48.00
2023-08-17T01:19:03.870Z,48.08
2023-08-17T01:21:38.158Z,47.66
2023-08-17T01:24:09.082Z,47.63
2023-08-17T01:26:37.906Z,48.31
2023-08-17T01:29:06.455Z,47.98
2023-08-17T01:31:39.137Z,47.36
2023-08-17T01:34:10.935Z,47.44
2023-08-17T01:36:42.472Z,47.23
2023-08-17T01:39:12.246Z,47.69
2023-08-17T01:41:40.816Z,47.42
2023-08-17T01:44:09.259Z,47.55
2023-08-17T01:46:38.055Z,47.54
2023-08-17T01:49:06.989Z,47.48
2023-08-17T01:51:35.414Z,47.53
2023-08-17T01:54:04.007Z,47.51
2023-08-17T01:56:34.164Z,47.56
2023-08-17T01:59:02.643Z,47.33
2023-08-17T02:01:31.057Z,47.57
2023-08-17T02:04:03.274Z,47.38
2023-08-17T02:06:31.740Z,47.69
2023-08-17T02:09:00.776Z,47.32
2023-08-17T02:11:29.282Z,47.42
2023-08-17T02:13:59.053Z,47.39
2023-08-17T02:16:27.516Z,47.40
2023-08-17T02:18:56.023Z,47.10
2023-08-17T02:21:24.625Z,47.21
2023-08-17T02:23:53.035Z,47.18
2023-08-17T02:26:21.965Z,47.31
2023-08-17T02:28:50.562Z,47.29
2023-08-17T02:31:20.310Z,47.52
2023-08-17T02:33:48.844Z,47.53
2023-08-17T02:36:17.258Z,47.74
2023-08-17T02:38:46.015Z,47.80
2023-08-17T02:41:14.887Z,47.55
2023-08-17T02:43:43.611Z,47.71
2023-08-17T02:46:12.104Z,48.11
2023-08-17T02:48:42.015Z,48.14
2023-08-17T02:51:10.387Z,48.26
2023-08-17T02:53:39.483Z,48.29
2023-08-17T02:56:07.950Z,48.19
2023-08-17T02:58:36.489Z,48.19
2023-08-17T03:01:05.606Z,48.43
2023-08-17T03:03:34.141Z,48.61
2023-08-17T03:06:04.460Z,48.24
2023-08-17T03:08:32.921Z,48.53
2023-08-17T03:11:01.622Z,48.59
2023-08-17T03:13:30.193Z,48.55
2023-08-17T03:15:58.676Z,48.80
2023-08-17T03:18:27.130Z,49.20
2023-08-17T03:20:55.631Z,49.13
2023-08-17T03:23:25.545Z,49.00
2023-08-17T03:25:54.750Z,49.22
2023-08-17T03:28:23.208Z,49.31
2023-08-17T03:30:51.733Z,49.97
2023-08-17T03:33:20.251Z,49.85
2023-08-17T03:35:49.062Z,49.64
2023-08-17T03:38:17.487Z,49.80
2023-08-17T03:40:47.415Z,49.96
2023-08-17T03:43:15.816Z,49.94
2023-08-17T03:45:44.669Z,50.77
2023-08-17T03:48:13.669Z,51.00
2023-08-17T03:50:42.287Z,51.22
2023-08-17T03:53:10.742Z,50.71
2023-08-17T03:55:39.268Z,50.84
2023-08-17T03:58:09.050Z,51.42
2023-08-17T04:00:37.584Z,51.71
2023-08-17T04:03:06.718Z,52.02
2023-08-17T04:05:35.187Z,52.23
2023-08-17T04:08:03.930Z,52.15
2023-08-17T04:10:32.350Z,52.02
2023-08-17T04:13:00.899Z,52.57
2023-08-17T04:15:30.716Z,52.44
2023-08-17T04:17:59.216Z,52.30
2023-08-17T04:20:27.949Z,52.57
2023-08-17T04:22:56.525Z,52.47
2023-08-17T04:25:25.065Z,52.31
2023-08-17T04:27:53.665Z,53.29
2023-08-17T04:30:22.265Z,53.75
2023-08-17T04:32:54.004Z,53.93
2023-08-17T04:35:22.886Z,53.64
2023-08-17T04:37:51.365Z,53.90
2023-08-17T04:40:19.965Z,54.45
2023-08-17T04:42:48.457Z,54.38
2023-08-17T04:45:16.976Z,54.47
2023-08-17T04:47:45.542Z,54.33
2023-08-17T04:50:17.507Z,54.69
2023-08-17T04:52:46.371Z,54.79
2023-08-17T04:55:15.127Z,55.21
2023-08-17T04:57:43.601Z,54.78
2023-08-17T05:00:13.805Z,54.54
2023-08-17T05:02:42.531Z,54.60
2023-08-17T05:05:14.940Z,54.93
2023-08-17T05:07:43.417Z,55.14
2023-08-17T05:10:12.538Z,54.50
2023-08-17T05:12:41.124Z,54.43
2023-08-17T05:15:11.579Z,53.19
2023-08-17T05:17:40.260Z,53.18
2023-08-17T05:20:10.404Z,52.74
2023-08-17T05:22:40.368Z,52.21
2023-08-17T05:25:09.915Z,51.98
2023-08-17T05:27:38.412Z,52.12
2023-08-17T05:30:08.970Z,51.98
2023-08-17T05:32:37.498Z,52.29
2023-08-17T05:35:06.825Z,52.05
2023-08-17T05:37:35.351Z,52.07
2023-08-17T05:40:06.817Z,52.00
2023-08-17T05:42:35.245Z,52.20
2023-08-17T05:45:03.837Z,52.02
2023-08-17T05:47:32.431Z,52.19
2023-08-17T05:50:00.955Z,52.07
2023-08-17T05:52:29.427Z,52.33
2023-08-17T05:54:59.516Z,52.07
2023-08-17T05:57:30.116Z,52.08
2023-08-17T05:59:58.650Z,52.04
2023-08-17T06:02:27.064Z,51.95
2023-08-17T06:04:55.643Z,52.17
2023-08-17T06:07:24.483Z,52.44
2023-08-17T06:09:53.180Z,52.57
2023-08-17T06:12:21.648Z,51.98
2023-08-17T06:14:51.883Z,52.23
2023-08-17T06:17:20.558Z,51.91
2023-08-17T06:19:49.355Z,53.02
2023-08-17T06:22:17.940Z,52.01
2023-08-17T06:24:46.547Z,51.96
2023-08-17T06:27:16.806Z,51.98
2023-08-17T06:29:45.635Z,52.29
2023-08-17T06:32:15.498Z,51.99
2023-08-17T06:34:44.116Z,52.10
2023-08-17T06:37:12.744Z,51.75
2023-08-17T06:39:41.302Z,52.28
2023-08-17T06:42:10.027Z,52.81
2023-08-17T06:44:38.686Z,52.76
2023-08-17T06:47:07.531Z,52.45
2023-08-17T06:49:37.677Z,52.03
2023-08-17T06:52:07.182Z,52.46
2023-08-17T06:54:36.560Z,52.47
2023-08-17T06:57:05.360Z,52.46
2023-08-17T06:59:34.479Z,52.26
2023-08-17T07:02:03.184Z,52.27
2023-08-17T07:04:32.380Z,52.64
2023-08-17T07:07:02.463Z,52.13
2023-08-17T07:09:31.048Z,52.08
2023-08-17T07:11:59.749Z,52.55
2023-08-17T07:14:29.278Z,53.31
2023-08-17T07:16:57.940Z,53.19
2023-08-17T07:19:45.597Z,52.33
2023-08-17T07:22:17.595Z,52.21
2023-08-17T07:24:46.243Z,52.54
2023-08-17T07:27:15.080Z,52.27
2023-08-17T07:29:43.680Z,52.86
2023-08-17T07:32:12.287Z,52.78
2023-08-17T07:34:41.096Z,52.52
2023-08-17T07:37:09.680Z,52.73
2023-08-17T07:39:39.755Z,52.67
2023-08-17T07:42:08.433Z,52.79
2023-08-17T07:44:37.130Z,52.60
2023-08-17T07:47:06.296Z,52.56
2023-08-17T07:49:34.944Z,53.14
2023-08-17T07:52:03.642Z,52.49
2023-08-17T07:54:32.161Z,52.85
2023-08-17T07:57:03.859Z,52.57
2023-08-17T07:59:32.415Z,52.50
2023-08-17T08:02:01.051Z,52.52
2023-08-17T08:04:29.734Z,52.63
2023-08-17T08:06:58.510Z,52.70
2023-08-17T08:09:27.205Z,52.35
2023-08-17T08:11:55.895Z,51.95
2023-08-17T08:14:25.846Z,52.54
2023-08-17T08:16:54.533Z,52.57
2023-08-17T08:19:23.528Z,52.37
2023-08-17T08:21:52.027Z,52.15
2023-08-17T08:24:36.605Z,52.41
2023-08-17T08:27:06.899Z,51.77
2023-08-17T08:29:37.338Z,51.91
2023-08-17T08:32:06.650Z,52.41
2023-08-17T08:34:35.319Z,52.45
2023-08-17T08:37:03.868Z,52.69
2023-08-17T08:39:32.698Z,52.50
2023-08-17T08:42:02.049Z,52.00
2023-08-17T08:44:30.967Z,52.34
2023-08-17T08:47:00.960Z,52.52
2023-08-17T08:49:29.826Z,53.05
2023-08-17T08:52:00.681Z,51.83
2023-08-17T08:54:29.601Z,52.54
2023-08-17T08:57:01.868Z,52.97
2023-08-17T08:59:30.837Z,51.81
2023-08-17T09:02:01.147Z,52.39
2023-08-17T09:04:29.887Z,51.90
2023-08-17T09:06:58.890Z,51.99
2023-08-17T09:09:30.326Z,52.15
2023-08-17T09:11:59.530Z,51.75
2023-08-17T09:14:28.122Z,51.66
2023-08-17T09:17:00.213Z,51.29
2023-08-17T09:19:30.175Z,50.95
2023-08-17T09:21:58.722Z,50.68
2023-08-17T09:24:27.244Z,50.92
2023-08-17T09:26:59.792Z,50.38
2023-08-17T09:29:28.363Z,50.58
2023-08-17T09:31:56.983Z,50.46
2023-08-17T09:34:25.553Z,50.14
2023-08-17T09:36:55.374Z,50.08
2023-08-17T09:39:23.793Z,49.40
2023-08-17T09:41:52.302Z,49.71
2023-08-17T09:44:20.917Z,50.32
2023-08-17T09:46:49.533Z,48.93
2023-08-17T09:49:19.183Z,48.98
2023-08-17T09:51:47.612Z,49.22
2023-08-17T09:54:28.106Z,49.35
2023-08-17T09:56:56.635Z,49.10
2023-08-17T09:59:26.345Z,48.29
2023-08-17T10:01:57.297Z,47.86
2023-08-17T10:04:26.319Z,48.07
2023-08-17T10:06:59.638Z,47.97
2023-08-17T10:09:37.353Z,47.82
2023-08-17T10:12:12.497Z,48.57
2023-08-17T10:14:47.993Z,48.77
2023-08-17T10:17:19.412Z,47.50
2023-08-17T10:19:53.358Z,48.12
2023-08-17T10:22:25.120Z,48.99
2023-08-17T10:24:55.217Z,48.80
2023-08-17T10:27:23.678Z,48.77
2023-08-17T10:29:52.127Z,49.25
2023-08-17T10:32:20.750Z,48.52
2023-08-17T10:34:49.298Z,47.28
2023-08-17T10:37:17.731Z,46.75
2023-08-17T10:39:47.898Z,45.99
2023-08-17T10:42:20.859Z,46.33
2023-08-17T10:44:50.350Z,47.08
2023-08-17T10:47:26.195Z,46.75
2023-08-17T10:49:58.351Z,46.19
2023-08-17T10:52:32.144Z,45.98
2023-08-17T10:55:02.533Z,46.59
2023-08-17T10:57:36.455Z,45.87
2023-08-17T11:00:22.037Z,45.36
2023-08-17T11:02:57.911Z,45.10
2023-08-17T11:05:43.623Z,44.80
2023-08-17T11:08:15.131Z,45.54
2023-08-17T11:10:48.323Z,45.21
2023-08-17T11:13:18.372Z,44.46
2023-08-17T11:15:49.611Z,44.50
2023-08-17T11:18:18.326Z,44.11
2023-08-17T11:20:48.133Z,44.01
2023-08-17T11:23:16.795Z,44.31
2023-08-17T11:25:45.431Z,44.25
2023-08-17T11:28:15.393Z,44.72
2023-08-17T11:30:47.820Z,44.11
2023-08-17T11:33:16.431Z,44.41
2023-08-17T11:35:45.467Z,44.75
2023-08-17T11:38:14.166Z,45.20
2023-08-17T11:40:42.572Z,45.79
2023-08-17T11:43:12.341Z,46.45
2023-08-17T11:45:41.555Z,46.56
2023-08-17T11:48:11.850Z,47.48
2023-08-17T11:50:42.095Z,47.39
2023-08-17T11:53:10.648Z,47.90
2023-08-17T11:55:39.397Z,47.92
2023-08-17T11:58:10.478Z,48.60
2023-08-17T12:00:43.685Z,47.96
2023-08-17T12:03:16.897Z,47.61
2023-08-17T12:05:46.562Z,48.12
2023-08-17T12:08:16.553Z,48.47
2023-08-17T12:10:45.359Z,49.48
2023-08-17T12:13:15.913Z,50.54
2023-08-17T12:15:44.694Z,50.28
2023-08-17T12:18:14.695Z,49.88
2023-08-17T12:20:44.568Z,50.24
2023-08-17T12:23:15.130Z,49.06
2023-08-17T12:25:43.763Z,49.96
2023-08-17T12:28:14.750Z,50.42
2023-08-17T12:30:43.411Z,49.55
2023-08-17T12:33:13.370Z,49.73
2023-08-17T12:35:41.923Z,49.84
2023-08-17T12:38:10.439Z,49.51
2023-08-17T12:40:39.047Z,49.11
2023-08-17T12:43:07.633Z,48.69
2023-08-17T12:45:36.215Z,48.90
2023-08-17T12:48:05.121Z,48.41
2023-08-17T12:50:35.558Z,48.43
2023-08-17T12:53:04.143Z,48.31
2023-08-17T12:55:32.589Z,48.69
2023-08-17T12:58:02.245Z,48.78
2023-08-17T13:00:30.749Z,49.03
2023-08-17T13:02:59.347Z,49.12
2023-08-17T13:05:27.829Z,48.83
2023-08-17T13:07:57.839Z,49.06
2023-08-17T13:10:26.395Z,49.21
2023-08-17T13:12:57.670Z,49.13
2023-08-17T13:15:29.788Z,49.02
2023-08-17T13:17:58.526Z,48.96
2023-08-17T13:20:27.137Z,48.41
2023-08-17T13:22:57.073Z,48.39
2023-08-17T13:25:25.549Z,48.29
2023-08-17T13:27:54.027Z,48.27
2023-08-17T13:30:22.458Z,48.30
2023-08-17T13:32:51.119Z,49.06
2023-08-17T13:35:19.971Z,48.91
2023-08-17T13:37:48.475Z,48.63
2023-08-17T13:40:18.418Z,49.31
2023-08-17T13:42:47.130Z,49.01
2023-08-17T13:45:15.703Z,49.00
2023-08-17T13:47:44.130Z,49.45
2023-08-17T13:50:12.942Z,49.93
2023-08-17T13:52:41.843Z,49.68
2023-08-17T13:55:11.207Z,49.67
2023-08-17T13:57:41.043Z,49.89
2023-08-17T14:00:11.834Z,49.70
2023-08-17T14:02:40.971Z,49.56
2023-08-17T14:05:10.657Z,49.48
2023-08-17T14:07:39.066Z,49.55
2023-08-17T14:10:13.834Z,50.00
2023-08-17T14:12:48.717Z,49.54
2023-08-17T14:15:17.191Z,49.28
2023-08-17T14:17:45.738Z,49.54
2023-08-17T14:20:16.553Z,49.33
2023-08-17T14:22:45.158Z,49.36
2023-08-17T14:25:13.645Z,49.58
2023-08-17T14:27:42.144Z,49.54
2023-08-17T14:30:13.073Z,49.53
2023-08-17T14:32:41.560Z,49.14
2023-08-17T14:35:13.217Z,48.93
2023-08-17T14:37:41.947Z,48.77
2023-08-17T14:40:11.399Z,48.87
2023-08-17T14:42:40.234Z,49.26
2023-08-17T14:45:11.863Z,49.12
2023-08-17T14:47:40.503Z,49.25
2023-08-17T14:50:09.651Z,48.63
2023-08-17T14:52:38.242Z,48.69
2023-08-17T14:55:07.356Z,48.74
2023-08-17T14:57:35.849Z,48.81
2023-08-17T15:00:05.349Z,49.04
2023-08-17T15:02:35.223Z,48.71
2023-08-17T15:05:03.860Z,48.87
2023-08-17T15:10:04.895Z,49.15
2023-08-17T15:12:33.358Z,48.87
2023-08-17T15:15:02.139Z,49.26
2023-08-17T15:17:30.673Z,48.64
2023-08-17T15:20:01.397Z,48.88
2023-08-17T15:22:29.806Z,48.17
2023-08-17T15:24:58.308Z,47.51
2023-08-17T15:27:27.112Z,47.74
2023-08-17T15:29:55.923Z,47.62
2023-08-17T15:32:24.362Z,47.68
2023-08-17T15:34:54.826Z,47.98
2023-08-17T15:37:26.617Z,48.10
2023-08-17T15:39:55.556Z,48.04
2023-08-17T15:42:23.981Z,48.67
2023-08-17T15:44:53.269Z,48.68
2023-08-17T15:47:21.747Z,48.57
2023-08-17T15:49:50.232Z,48.15
2023-08-17T15:52:19.068Z,48.42
2023-08-17T15:54:48.919Z,48.35
2023-08-17T15:57:17.347Z,48.53
2023-08-17T15:59:45.732Z,49.15
2023-08-17T16:02:14.245Z,48.58
2023-08-17T16:04:43.050Z,48.74
2023-08-17T16:07:11.624Z,48.55
2023-08-17T16:09:40.681Z,48.63
2023-08-17T16:12:11.684Z,48.25
2023-08-17T16:14:40.159Z,48.52
2023-08-17T16:17:08.703Z,48.40
2023-08-17T16:19:37.226Z,48.24
2023-08-17T16:22:06.096Z,48.48
2023-08-17T16:24:34.590Z,48.32
2023-08-17T16:27:03.480Z,48.33
2023-08-17T16:29:33.334Z,49.12
2023-08-17T16:32:09.129Z,49.04
2023-08-17T16:34:38.227Z,49.46
2023-08-17T16:37:07.150Z,48.84
2023-08-17T16:39:35.996Z,49.02
2023-08-17T16:42:04.972Z,48.66
2023-08-17T16:44:35.246Z,48.58
2023-08-17T16:47:03.799Z,48.04
2023-08-17T16:49:32.266Z,48.52
2023-08-17T16:52:01.408Z,48.90
2023-08-17T16:54:29.972Z,48.65
2023-08-17T16:56:58.439Z,48.75
2023-08-17T16:59:27.029Z,48.55
2023-08-17T17:01:56.989Z,48.84
2023-08-17T17:04:25.502Z,48.82
2023-08-17T17:06:54.007Z,49.05
2023-08-17T17:09:22.730Z,49.61
2023-08-17T17:11:51.279Z,49.65
2023-08-17T17:14:19.826Z,49.80
2023-08-17T17:16:48.244Z,49.48
2023-08-17T17:19:19.304Z,49.37
2023-08-17T17:21:47.867Z,49.39
2023-08-17T17:24:16.348Z,49.51
2023-08-17T17:26:44.791Z,49.54
2023-08-17T17:29:13.268Z,49.15
2023-08-17T17:31:41.981Z,49.56
2023-08-17T17:34:10.623Z,49.59
2023-08-17T17:36:40.483Z,49.57
2023-08-17T17:39:08.911Z,49.42
2023-08-17T17:41:37.390Z,49.18
2023-08-17T17:44:06.713Z,49.19
2023-08-17T17:46:35.236Z,49.34
2023-08-17T17:49:03.747Z,49.00
2023-08-17T17:51:32.218Z,49.21
2023-08-17T17:54:02.234Z,49.36
2023-08-17T17:56:40.647Z,49.60
2023-08-17T17:59:11.247Z,49.56
2023-08-17T18:01:40.299Z,49.38
2023-08-17T18:04:08.839Z,49.70
2023-08-17T18:06:37.292Z,49.84
2023-08-17T18:09:07.323Z,49.49
2023-08-17T18:11:36.127Z,49.42
2023-08-17T18:14:04.707Z,49.47
2023-08-17T18:16:33.267Z,49.08
2023-08-17T18:19:01.933Z,49.25
2023-08-17T18:21:32.122Z,49.00
2023-08-17T18:24:00.865Z,49.03
2023-08-17T18:26:30.721Z,49.67
2023-08-17T18:28:59.797Z,49.87
2023-08-17T18:31:29.205Z,50.01
2023-08-17T18:33:57.861Z,50.19
2023-08-17T18:36:26.630Z,50.46
2023-08-17T18:38:55.298Z,50.44
2023-08-17T18:41:23.911Z,50.49
2023-08-17T18:43:54.153Z,50.02
2023-08-17T18:46:22.986Z,49.62
2023-08-17T18:48:51.670Z,49.73
2023-08-17T18:51:20.185Z,49.40
2023-08-17T18:53:49.346Z,49.45
2023-08-17T18:56:17.798Z,49.46
2023-08-17T18:58:46.315Z,49.48
2023-08-17T19:01:18.814Z,49.36
2023-08-17T19:03:47.435Z,49.34
2023-08-17T19:06:15.985Z,49.22
2023-08-17T19:08:44.535Z,49.72
2023-08-17T19:11:12.967Z,49.56
2023-08-17T19:13:41.429Z,49.48
2023-08-17T19:16:10.377Z,49.53
2023-08-17T19:18:40.210Z,48.88
2023-08-17T19:21:09.180Z,48.94
2023-08-17T19:23:37.654Z,49.18
2023-08-17T19:26:06.851Z,49.53
2023-08-17T19:28:35.329Z,49.44
2023-08-17T19:31:03.764Z,49.90
2023-08-17T19:33:32.390Z,49.97
2023-08-17T19:36:02.281Z,49.61
2023-08-17T19:38:30.781Z,49.46
2023-08-17T19:40:59.273Z,49.41
2023-08-17T19:43:27.806Z,49.37
2023-08-17T19:45:56.368Z,49.63
2023-08-17T19:48:24.918Z,49.38
2023-08-17T19:50:54.759Z,49.55
2023-08-17T19:53:24.936Z,49.44
2023-08-17T19:55:54.257Z,49.15
2023-08-17T19:58:23.028Z,49.44
2023-08-17T20:00:51.821Z,49.30
2023-08-17T20:03:21.770Z,49.33
2023-08-17T20:05:50.964Z,49.60
2023-08-17T20:08:19.816Z,49.46
2023-08-17T20:10:49.988Z,49.38
2023-08-17T20:13:18.842Z,49.33
2023-08-17T20:15:47.639Z,49.45
2023-08-17T20:18:16.324Z,49.37
2023-08-17T20:20:52.034Z,49.55
2023-08-17T20:23:21.346Z,49.45
2023-08-17T20:25:53.805Z,49.35
2023-08-17T20:28:23.639Z,49.51
2023-08-17T20:30:57.469Z,49.58
2023-08-17T20:33:26.169Z,49.39
2023-08-17T20:35:55.422Z,49.47
2023-08-17T20:38:24.229Z,49.86
2023-08-17T20:40:54.607Z,50.09
2023-08-17T20:43:23.608Z,50.35
2023-08-17T20:45:52.271Z,50.14
2023-08-17T20:48:21.036Z,49.95
2023-08-17T20:50:49.888Z,50.33
2023-08-17T20:53:18.626Z,50.11
2023-08-17T20:55:47.921Z,50.36
2023-08-17T20:58:18.379Z,50.30
2023-08-17T21:00:47.163Z,50.66
2023-08-17T21:03:16.013Z,50.84
2023-08-17T21:05:44.822Z,50.67
2023-08-17T21:08:14.089Z,50.46
2023-08-17T21:10:43.563Z,50.82
2023-08-17T21:13:12.436Z,51.28
2023-08-17T21:15:42.849Z,51.30
2023-08-17T21:18:11.638Z,50.76
2023-08-17T21:20:42.778Z,50.81
2023-08-17T21:23:12.661Z,50.67
2023-08-17T21:25:41.476Z,50.89
2023-08-17T21:28:10.163Z,51.14
2023-08-17T21:30:38.890Z,51.36
2023-08-17T21:33:09.037Z,51.25
2023-08-17T21:35:38.131Z,51.20
2023-08-17T21:38:06.977Z,51.29
2023-08-17T21:40:35.946Z,51.24
2023-08-17T21:43:04.686Z,51.24
2023-08-17T21:45:33.477Z,50.85
2023-08-17T21:48:02.298Z,50.71
2023-08-17T21:50:32.585Z,50.56
2023-08-17T21:53:01.412Z,50.92
2023-08-17T21:55:30.369Z,50.75
2023-08-17T21:57:59.214Z,51.57
2023-08-17T22:00:28.111Z,51.39
2023-08-17T22:02:57.103Z,51.40
2023-08-17T22:05:25.830Z,51.20
2023-08-17T22:07:55.999Z,50.94
2023-08-17T22:10:24.737Z,51.07
2023-08-17T22:12:54.097Z,50.76
2023-08-17T22:15:22.892Z,50.54
2023-08-17T22:17:51.925Z,50.44
2023-08-17T22:20:20.692Z,50.43
2023-08-17T22:22:49.640Z,50.09
2023-08-17T22:25:19.850Z,50.31
2023-08-17T22:27:48.663Z,50.37
2023-08-17T22:30:17.480Z,50.31
2023-08-17T22:32:47.220Z,50.20
2023-08-17T22:35:15.920Z,50.26
2023-08-17T22:37:44.638Z,50.29
2023-08-17T22:40:13.598Z,50.30
2023-08-17T22:42:43.931Z,50.04
2023-08-17T22:45:13.284Z,50.22
2023-08-17T22:47:42.110Z,50.23
2023-08-17T22:50:11.711Z,50.24
2023-08-17T22:52:40.768Z,50.20
2023-08-17T22:55:09.948Z,50.33
2023-08-17T22:57:38.922Z,50.34
2023-08-17T23:00:10.683Z,50.35
2023-08-17T23:02:39.415Z,50.48
2023-08-17T23:05:09.132Z,50.47
2023-08-17T23:07:37.873Z,50.24
2023-08-17T23:10:07.602Z,50.55
2023-08-17T23:12:36.452Z,50.49
2023-08-17T23:15:05.584Z,50.33
2023-08-17T23:17:35.995Z,50.20
2023-08-17T23:20:05.043Z,50.11
2023-08-17T23:22:33.763Z,50.30
2023-08-17T23:25:02.554Z,50.23
2023-08-17T23:27:31.795Z,50.53
2023-08-17T23:30:01.065Z,50.74
2023-08-17T23:32:30.030Z,50.54
2023-08-17T23:35:00.290Z,50.63
2023-08-17T23:37:29.228Z,50.96
2023-08-17T23:39:58.390Z,50.82
2023-08-17T23:42:27.167Z,51.10
2023-08-17T23:44:55.928Z,51.36
2023-08-17T23:47:24.657Z,51.13
2023-08-17T23:49:53.595Z,50.88
2023-08-17T23:52:23.916Z,50.72
2023-08-17T23:54:52.845Z,50.74
2023-08-17T23:57:21.531Z,50.53
2023-08-17T23:59:50.823Z,50.36
